sensor_id;sensor_type;location;lat;lon;timestamp;pressure;altitude;pressure_sealevel;temperature
20867;BMP280;10593;48.398;10.698;2023-04-19T00:00:38;96647.09;;;15.84
20867;BMP280;10593;48.398;10.698;2023-04-19T00:03:05;96645.44;;;15.81
20867;BMP280;10593;48.398;10.698;2023-04-19T00:05:31;96636.88;;;15.79
20867;BMP280;10593;48.398;10.698;2023-04-19T00:07:57;96636.91;;;15.78
20867;BMP280;10593;48.398;10.698;2023-04-19T00:10:23;96634.38;;;15.76
20867;BMP280;10593;48.398;10.698;2023-04-19T00:12:49;96633.59;;;15.74
20867;BMP280;10593;48.398;10.698;2023-04-19T00:15:15;96631.91;;;15.73
20867;BMP280;10593;48.398;10.698;2023-04-19T00:17:41;96629.31;;;15.73
20867;BMP280;10593;48.398;10.698;2023-04-19T00:20:07;96639.69;;;15.73
20867;BMP280;10593;48.398;10.698;2023-04-19T00:22:34;96631.03;;;15.73
20867;BMP280;10593;48.398;10.698;2023-04-19T00:25:00;96642.31;;;15.72
20867;BMP280;10593;48.398;10.698;2023-04-19T00:27:26;96634.56;;;15.70
20867;BMP280;10593;48.398;10.698;2023-04-19T00:29:51;96632.84;;;15.71
20867;BMP280;10593;48.398;10.698;2023-04-19T00:32:17;96635.47;;;15.69
20867;BMP280;10593;48.398;10.698;2023-04-19T00:34:43;96629.44;;;15.69
20867;BMP280;10593;48.398;10.698;2023-04-19T00:37:09;96620.88;;;15.67
20867;BMP280;10593;48.398;10.698;2023-04-19T00:39:36;96628.66;;;15.67
20867;BMP280;10593;48.398;10.698;2023-04-19T00:42:01;96623.50;;;15.65
20867;BMP280;10593;48.398;10.698;2023-04-19T00:44:27;96626.94;;;15.66
20867;BMP280;10593;48.398;10.698;2023-04-19T00:46:54;96623.47;;;15.67
20867;BMP280;10593;48.398;10.698;2023-04-19T00:49:22;96614.84;;;15.66
20867;BMP280;10593;48.398;10.698;2023-04-19T00:51:52;96607.97;;;15.65
20867;BMP280;10593;48.398;10.698;2023-04-19T00:54:19;96612.25;;;15.66
20867;BMP280;10593;48.398;10.698;2023-04-19T00:56:45;96613.09;;;15.67
20867;BMP280;10593;48.398;10.698;2023-04-19T00:59:13;96613.03;;;15.68
20867;BMP280;10593;48.398;10.698;2023-04-19T01:01:39;96603.56;;;15.67
20867;BMP280;10593;48.398;10.698;2023-04-19T01:04:07;96615.63;;;15.68
20867;BMP280;10593;48.398;10.698;2023-04-19T01:06:34;96614.72;;;15.69
20867;BMP280;10593;48.398;10.698;2023-04-19T01:09:00;96608.66;;;15.70
20867;BMP280;10593;48.398;10.698;2023-04-19T01:11:27;96611.22;;;15.72
20867;BMP280;10593;48.398;10.698;2023-04-19T01:13:55;96606.03;;;15.72
20867;BMP280;10593;48.398;10.698;2023-04-19T01:16:21;96602.56;;;15.71
20867;BMP280;10593;48.398;10.698;2023-04-19T01:18:47;96603.47;;;15.70
20867;BMP280;10593;48.398;10.698;2023-04-19T01:21:12;96596.59;;;15.69
20867;BMP280;10593;48.398;10.698;2023-04-19T01:23:38;96595.81;;;15.67
20867;BMP280;10593;48.398;10.698;2023-04-19T01:26:05;96599.28;;;15.66
20867;BMP280;10593;48.398;10.698;2023-04-19T01:28:31;96593.34;;;15.63
20867;BMP280;10593;48.398;10.698;2023-04-19T01:30:57;96591.72;;;15.60
20867;BMP280;10593;48.398;10.698;2023-04-19T01:33:23;96590.91;;;15.58
20867;BMP280;10593;48.398;10.698;2023-04-19T01:35:49;96582.31;;;15.58
20867;BMP280;10593;48.398;10.698;2023-04-19T01:38:16;96582.31;;;15.58
20867;BMP280;10593;48.398;10.698;2023-04-19T01:40:42;96578.84;;;15.57
20867;BMP280;10593;48.398;10.698;2023-04-19T01:43:12;96580.59;;;15.57
20867;BMP280;10593;48.398;10.698;2023-04-19T01:45:38;96578.91;;;15.56
20867;BMP280;10593;48.398;10.698;2023-04-19T01:48:04;96574.56;;;15.56
20867;BMP280;10593;48.398;10.698;2023-04-19T01:50:30;96567.59;;;15.58
20867;BMP280;10593;48.398;10.698;2023-04-19T01:52:57;96570.16;;;15.60
20867;BMP280;10593;48.398;10.698;2023-04-19T01:55:22;96568.34;;;15.62
20867;BMP280;10593;48.398;10.698;2023-04-19T01:57:48;96569.22;;;15.62
20867;BMP280;10593;48.398;10.698;2023-04-19T02:00:14;96572.63;;;15.63
20867;BMP280;10593;48.398;10.698;2023-04-19T02:02:42;96568.34;;;15.62
20867;BMP280;10593;48.398;10.698;2023-04-19T02:05:09;96568.34;;;15.62
20867;BMP280;10593;48.398;10.698;2023-04-19T02:07:35;96568.34;;;15.62
20867;BMP280;10593;48.398;10.698;2023-04-19T02:10:00;96564.94;;;15.61
20867;BMP280;10593;48.398;10.698;2023-04-19T02:12:27;96555.41;;;15.62
20867;BMP280;10593;48.398;10.698;2023-04-19T02:14:54;96557.22;;;15.58
20867;BMP280;10593;48.398;10.698;2023-04-19T02:17:24;96552.94;;;15.57
20867;BMP280;10593;48.398;10.698;2023-04-19T02:19:50;96549.56;;;15.55
20867;BMP280;10593;48.398;10.698;2023-04-19T02:22:16;96543.56;;;15.55
20867;BMP280;10593;48.398;10.698;2023-04-19T02:24:42;96547.06;;;15.52
20867;BMP280;10593;48.398;10.698;2023-04-19T02:27:07;96535.84;;;15.52
20867;BMP280;10593;48.398;10.698;2023-04-19T02:29:33;96545.38;;;15.51
20867;BMP280;10593;48.398;10.698;2023-04-19T02:31:59;96545.38;;;15.51
20867;BMP280;10593;48.398;10.698;2023-04-19T02:34:26;96544.50;;;15.52
20867;BMP280;10593;48.398;10.698;2023-04-19T02:36:52;96535.84;;;15.52
20867;BMP280;10593;48.398;10.698;2023-04-19T02:39:17;96551.34;;;15.53
20867;BMP280;10593;48.398;10.698;2023-04-19T02:41:43;96535.03;;;15.51
20867;BMP280;10593;48.398;10.698;2023-04-19T02:44:09;96547.97;;;15.51
20867;BMP280;10593;48.398;10.698;2023-04-19T02:46:35;96542.84;;;15.50
20867;BMP280;10593;48.398;10.698;2023-04-19T02:49:00;96539.44;;;15.48
20867;BMP280;10593;48.398;10.698;2023-04-19T02:51:26;96537.78;;;15.45
20867;BMP280;10593;48.398;10.698;2023-04-19T02:53:52;96536.94;;;15.46
20867;BMP280;10593;48.398;10.698;2023-04-19T02:56:18;96533.47;;;15.46
20867;BMP280;10593;48.398;10.698;2023-04-19T02:58:44;96532.63;;;15.45
20867;BMP280;10593;48.398;10.698;2023-04-19T03:01:09;96531.81;;;15.43
20867;BMP280;10593;48.398;10.698;2023-04-19T03:03:35;96523.22;;;15.43
20867;BMP280;10593;48.398;10.698;2023-04-19T03:06:01;96517.06;;;15.45
20867;BMP280;10593;48.398;10.698;2023-04-19T03:08:27;96515.38;;;15.44
20867;BMP280;10593;48.398;10.698;2023-04-19T03:10:53;96511.97;;;15.44
20867;BMP280;10593;48.398;10.698;2023-04-19T03:13:18;96523.16;;;15.44
20867;BMP280;10593;48.398;10.698;2023-04-19T03:15:44;96511.91;;;15.45
20867;BMP280;10593;48.398;10.698;2023-04-19T03:18:10;96519.66;;;15.45
20867;BMP280;10593;48.398;10.698;2023-04-19T03:20:35;96507.53;;;15.47
20867;BMP280;10593;48.398;10.698;2023-04-19T03:23:01;96506.69;;;15.47
20867;BMP280;10593;48.398;10.698;2023-04-19T03:25:27;96504.94;;;15.47
20867;BMP280;10593;48.398;10.698;2023-04-19T03:27:53;96505.84;;;15.46
20867;BMP280;10593;48.398;10.698;2023-04-19T03:30:18;96503.25;;;15.46
20867;BMP280;10593;48.398;10.698;2023-04-19T03:32:45;96502.38;;;15.47
20867;BMP280;10593;48.398;10.698;2023-04-19T03:35:11;96499.81;;;15.46
20867;BMP280;10593;48.398;10.698;2023-04-19T03:37:37;96501.53;;;15.45
20867;BMP280;10593;48.398;10.698;2023-04-19T03:40:03;96498.13;;;15.45
20867;BMP280;10593;48.398;10.698;2023-04-19T03:42:29;96502.50;;;15.43
20867;BMP280;10593;48.398;10.698;2023-04-19T03:44:55;96491.28;;;15.42
20867;BMP280;10593;48.398;10.698;2023-04-19T03:47:21;96499.94;;;15.41
20867;BMP280;10593;48.398;10.698;2023-04-19T03:49:47;96494.84;;;15.40
20867;BMP280;10593;48.398;10.698;2023-04-19T03:52:13;96488.00;;;15.37
20867;BMP280;10593;48.398;10.698;2023-04-19T03:54:38;96494.91;;;15.37
20867;BMP280;10593;48.398;10.698;2023-04-19T03:57:04;96493.19;;;15.37
20867;BMP280;10593;48.398;10.698;2023-04-19T03:59:30;96490.53;;;15.39
20867;BMP280;10593;48.398;10.698;2023-04-19T04:01:56;96490.50;;;15.40
20867;BMP280;10593;48.398;10.698;2023-04-19T04:04:21;96486.19;;;15.41
20867;BMP280;10593;48.398;10.698;2023-04-19T04:06:47;96487.00;;;15.41
20867;BMP280;10593;48.398;10.698;2023-04-19T04:09:13;96484.41;;;15.41
20867;BMP280;10593;48.398;10.698;2023-04-19T04:11:38;96480.94;;;15.42
20867;BMP280;10593;48.398;10.698;2023-04-19T04:14:05;96485.22;;;15.43
20867;BMP280;10593;48.398;10.698;2023-04-19T04:16:31;96486.91;;;15.44
20867;BMP280;10593;48.398;10.698;2023-04-19T04:18:56;96481.72;;;15.44
20867;BMP280;10593;48.398;10.698;2023-04-19T04:21:22;96482.53;;;15.46
20867;BMP280;10593;48.398;10.698;2023-04-19T04:23:49;96485.13;;;15.46
20867;BMP280;10593;48.398;10.698;2023-04-19T04:26:14;96490.31;;;15.46
20867;BMP280;10593;48.398;10.698;2023-04-19T04:28:40;96491.13;;;15.47
20867;BMP280;10593;48.398;10.698;2023-04-19T04:31:06;96487.75;;;15.45
20867;BMP280;10593;48.398;10.698;2023-04-19T04:33:32;96495.53;;;15.45
20867;BMP280;10593;48.398;10.698;2023-04-19T04:35:57;96494.66;;;15.44
20867;BMP280;10593;48.398;10.698;2023-04-19T04:38:23;96500.75;;;15.43
20867;BMP280;10593;48.398;10.698;2023-04-19T04:40:54;96491.25;;;15.44
20867;BMP280;10593;48.398;10.698;2023-04-19T04:43:22;96489.56;;;15.43
20867;BMP280;10593;48.398;10.698;2023-04-19T04:45:48;96499.81;;;15.46
20867;BMP280;10593;48.398;10.698;2023-04-19T04:48:14;96491.19;;;15.45
20867;BMP280;10593;48.398;10.698;2023-04-19T04:50:41;96484.28;;;15.46
20867;BMP280;10593;48.398;10.698;2023-04-19T04:53:06;96489.41;;;15.47
20867;BMP280;10593;48.398;10.698;2023-04-19T04:55:33;96490.31;;;15.46
20867;BMP280;10593;48.398;10.698;2023-04-19T04:57:59;96491.13;;;15.47
20867;BMP280;10593;48.398;10.698;2023-04-19T05:00:25;96495.50;;;15.46
20867;BMP280;10593;48.398;10.698;2023-04-19T05:02:51;96494.63;;;15.46
20867;BMP280;10593;48.398;10.698;2023-04-19T05:05:16;96487.72;;;15.46
20867;BMP280;10593;48.398;10.698;2023-04-19T05:07:42;96492.06;;;15.44
20867;BMP280;10593;48.398;10.698;2023-04-19T05:10:08;96495.50;;;15.46
20867;BMP280;10593;48.398;10.698;2023-04-19T05:12:33;96497.19;;;15.47
20867;BMP280;10593;48.398;10.698;2023-04-19T05:14:59;96492.00;;;15.47
20867;BMP280;10593;48.398;10.698;2023-04-19T05:17:25;96496.31;;;15.47
20867;BMP280;10593;48.398;10.698;2023-04-19T05:19:50;96491.19;;;15.45
20867;BMP280;10593;48.398;10.698;2023-04-19T05:22:16;96489.50;;;15.44
20867;BMP280;10593;48.398;10.698;2023-04-19T05:24:42;96488.59;;;15.45
20867;BMP280;10593;48.398;10.698;2023-04-19T05:27:07;96487.72;;;15.46
20867;BMP280;10593;48.398;10.698;2023-04-19T05:29:34;96492.00;;;15.47
20867;BMP280;10593;48.398;10.698;2023-04-19T05:31:59;96494.53;;;15.49
20867;BMP280;10593;48.398;10.698;2023-04-19T05:34:25;96493.69;;;15.48
20867;BMP280;10593;48.398;10.698;2023-04-19T05:36:51;96493.59;;;15.51
20867;BMP280;10593;48.398;10.698;2023-04-19T05:39:16;96491.00;;;15.51
20867;BMP280;10593;48.398;10.698;2023-04-19T05:41:42;96493.53;;;15.53
20867;BMP280;10593;48.398;10.698;2023-04-19T05:44:08;96483.19;;;15.53
20867;BMP280;10593;48.398;10.698;2023-04-19T05:46:33;96487.50;;;15.52
20867;BMP280;10593;48.398;10.698;2023-04-19T05:49:01;96487.53;;;15.51
20867;BMP280;10593;48.398;10.698;2023-04-19T05:51:27;96480.75;;;15.48
20867;BMP280;10593;48.398;10.698;2023-04-19T05:53:52;96483.41;;;15.45
20867;BMP280;10593;48.398;10.698;2023-04-19T05:56:18;96487.72;;;15.46
20867;BMP280;10593;48.398;10.698;2023-04-19T05:58:44;96486.91;;;15.44
20867;BMP280;10593;48.398;10.698;2023-04-19T06:01:10;96488.69;;;15.42
20867;BMP280;10593;48.398;10.698;2023-04-19T06:03:35;96487.06;;;15.40
20867;BMP280;10593;48.398;10.698;2023-04-19T06:06:01;96487.00;;;15.41
20867;BMP280;10593;48.398;10.698;2023-04-19T06:08:27;96494.84;;;15.40
20867;BMP280;10593;48.398;10.698;2023-04-19T06:10:52;96495.72;;;15.39
20867;BMP280;10593;48.398;10.698;2023-04-19T06:13:20;96494.84;;;15.40
20867;BMP280;10593;48.398;10.698;2023-04-19T06:15:47;96486.22;;;15.39
20867;BMP280;10593;48.398;10.698;2023-04-19T06:18:12;96495.66;;;15.40
20867;BMP280;10593;48.398;10.698;2023-04-19T06:20:39;96490.50;;;15.40
20867;BMP280;10593;48.398;10.698;2023-04-19T06:23:05;96493.13;;;15.39
20867;BMP280;10593;48.398;10.698;2023-04-19T06:25:31;96496.59;;;15.38
20867;BMP280;10593;48.398;10.698;2023-04-19T06:27:57;96489.81;;;15.35
20867;BMP280;10593;48.398;10.698;2023-04-19T06:30:23;96491.50;;;15.36
20867;BMP280;10593;48.398;10.698;2023-04-19T06:32:48;96489.81;;;15.35
20867;BMP280;10593;48.398;10.698;2023-04-19T06:35:15;96489.75;;;15.37
20867;BMP280;10593;48.398;10.698;2023-04-19T06:37:40;96489.69;;;15.38
20867;BMP280;10593;48.398;10.698;2023-04-19T06:40:07;96489.69;;;15.38
20867;BMP280;10593;48.398;10.698;2023-04-19T06:42:36;96487.13;;;15.38
20867;BMP280;10593;48.398;10.698;2023-04-19T06:45:03;96493.13;;;15.39
20867;BMP280;10593;48.398;10.698;2023-04-19T06:47:29;96497.47;;;15.38
20867;BMP280;10593;48.398;10.698;2023-04-19T06:49:56;96498.31;;;15.39
20867;BMP280;10593;48.398;10.698;2023-04-19T06:52:22;96494.03;;;15.38
20867;BMP280;10593;48.398;10.698;2023-04-19T06:54:48;96488.00;;;15.37
20867;BMP280;10593;48.398;10.698;2023-04-19T06:57:16;96490.59;;;15.37
20867;BMP280;10593;48.398;10.698;2023-04-19T06:59:42;96485.34;;;15.39
20867;BMP280;10593;48.398;10.698;2023-04-19T07:02:08;96487.91;;;15.40
20867;BMP280;10593;48.398;10.698;2023-04-19T07:04:34;96483.50;;;15.42
20867;BMP280;10593;48.398;10.698;2023-04-19T07:06:59;96489.44;;;15.46
20867;BMP280;10593;48.398;10.698;2023-04-19T07:09:25;96483.34;;;15.48
20867;BMP280;10593;48.398;10.698;2023-04-19T07:11:51;96482.38;;;15.51
20867;BMP280;10593;48.398;10.698;2023-04-19T07:14:17;96483.13;;;15.54
20867;BMP280;10593;48.398;10.698;2023-04-19T07:16:44;96480.41;;;15.57
20867;BMP280;10593;48.398;10.698;2023-04-19T07:19:11;96479.44;;;15.61
20867;BMP280;10593;48.398;10.698;2023-04-19T07:21:37;96474.19;;;15.63
20867;BMP280;10593;48.398;10.698;2023-04-19T07:24:06;96476.66;;;15.66
20867;BMP280;10593;48.398;10.698;2023-04-19T07:26:33;96468.03;;;15.67
20867;BMP280;10593;48.398;10.698;2023-04-19T07:28:59;96467.06;;;15.69
20867;BMP280;10593;48.398;10.698;2023-04-19T07:31:26;96471.28;;;15.72
20867;BMP280;10593;48.398;10.698;2023-04-19T07:33:52;96466.06;;;15.73
20867;BMP280;10593;48.398;10.698;2023-04-19T07:36:18;96465.06;;;15.77
20867;BMP280;10593;48.398;10.698;2023-04-19T07:38:45;96461.56;;;15.78
20867;BMP280;10593;48.398;10.698;2023-04-19T07:41:10;96468.31;;;15.82
20867;BMP280;10593;48.398;10.698;2023-04-19T07:43:36;96463.94;;;15.84
20867;BMP280;10593;48.398;10.698;2023-04-19T07:46:09;96466.44;;;15.87
20867;BMP280;10593;48.398;10.698;2023-04-19T07:48:35;96467.22;;;15.89
20867;BMP280;10593;48.398;10.698;2023-04-19T07:51:15;96465.47;;;15.90
20867;BMP280;10593;48.398;10.698;2023-04-19T07:53:42;96448.97;;;15.92
20867;BMP280;10593;48.398;10.698;2023-04-19T07:56:10;96457.50;;;15.96
20867;BMP280;10593;48.398;10.698;2023-04-19T07:58:37;96453.09;;;15.98
20867;BMP280;10593;48.398;10.698;2023-04-19T08:01:04;96456.53;;;15.98
20867;BMP280;10593;48.398;10.698;2023-04-19T08:03:30;96452.16;;;16.00
20867;BMP280;10593;48.398;10.698;2023-04-19T08:06:00;96451.19;;;16.03
20867;BMP280;10593;48.398;10.698;2023-04-19T08:08:27;96452.97;;;16.01
20867;BMP280;10593;48.398;10.698;2023-04-19T08:10:52;96451.25;;;16.01
20867;BMP280;10593;48.398;10.698;2023-04-19T08:13:21;96450.34;;;16.02
20867;BMP280;10593;48.398;10.698;2023-04-19T08:15:47;96452.81;;;16.05
20867;BMP280;10593;48.398;10.698;2023-04-19T08:18:12;96447.59;;;16.07
20867;BMP280;10593;48.398;10.698;2023-04-19T08:20:38;96454.41;;;16.09
20867;BMP280;10593;48.398;10.698;2023-04-19T08:23:07;96454.47;;;16.08
20867;BMP280;10593;48.398;10.698;2023-04-19T08:25:34;96443.19;;;16.09
20867;BMP280;10593;48.398;10.698;2023-04-19T08:28:00;96450.91;;;16.10
20867;BMP280;10593;48.398;10.698;2023-04-19T08:30:26;96446.63;;;16.09
20867;BMP280;10593;48.398;10.698;2023-04-19T08:32:51;96439.75;;;16.08
20867;BMP280;10593;48.398;10.698;2023-04-19T08:35:17;96438.84;;;16.09
20867;BMP280;10593;48.398;10.698;2023-04-19T08:37:43;96438.84;;;16.09
20867;BMP280;10593;48.398;10.698;2023-04-19T08:40:09;96443.13;;;16.10
20867;BMP280;10593;48.398;10.698;2023-04-19T08:42:36;96435.34;;;16.10
20867;BMP280;10593;48.398;10.698;2023-04-19T08:45:03;96441.41;;;16.11
20867;BMP280;10593;48.398;10.698;2023-04-19T08:47:34;96434.41;;;16.13
20867;BMP280;10593;48.398;10.698;2023-04-19T08:50:02;96431.81;;;16.13
20867;BMP280;10593;48.398;10.698;2023-04-19T08:52:32;96436.06;;;16.15
20867;BMP280;10593;48.398;10.698;2023-04-19T08:55:03;96426.47;;;16.17
20867;BMP280;10593;48.398;10.698;2023-04-19T08:57:33;96419.44;;;16.21
20867;BMP280;10593;48.398;10.698;2023-04-19T09:00:02;96417.63;;;16.23
20867;BMP280;10593;48.398;10.698;2023-04-19T09:02:46;96420.03;;;16.27
20867;BMP280;10593;48.398;10.698;2023-04-19T09:05:13;96424.22;;;16.31
20867;BMP280;10593;48.398;10.698;2023-04-19T09:07:39;96418.03;;;16.35
20867;BMP280;10593;48.398;10.698;2023-04-19T09:10:12;96413.56;;;16.39
20867;BMP280;10593;48.398;10.698;2023-04-19T09:12:39;96418.59;;;16.43
20867;BMP280;10593;48.398;10.698;2023-04-19T09:15:07;96408.09;;;16.46
20867;BMP280;10593;48.398;10.698;2023-04-19T09:17:39;96407.06;;;16.50
20867;BMP280;10593;48.398;10.698;2023-04-19T09:20:06;96400.88;;;16.54
20867;BMP280;10593;48.398;10.698;2023-04-19T09:22:33;96405.09;;;16.57
20867;BMP280;10593;48.398;10.698;2023-04-19T09:24:59;96391.28;;;16.56
20867;BMP280;10593;48.398;10.698;2023-04-19T09:27:33;96402.44;;;16.58
20867;BMP280;10593;48.398;10.698;2023-04-19T09:30:01;96398.03;;;16.60
20867;BMP280;10593;48.398;10.698;2023-04-19T09:32:28;96399.59;;;16.64
20867;BMP280;10593;48.398;10.698;2023-04-19T09:35:08;96392.59;;;16.66
20867;BMP280;10593;48.398;10.698;2023-04-19T09:37:34;96385.53;;;16.70
20867;BMP280;10593;48.398;10.698;2023-04-19T09:40:00;96382.03;;;16.71
20867;BMP280;10593;48.398;10.698;2023-04-19T09:42:45;96381.88;;;16.75
20867;BMP280;10593;48.398;10.698;2023-04-19T09:45:11;96380.06;;;16.77
20867;BMP280;10593;48.398;10.698;2023-04-19T09:47:37;96378.22;;;16.79
20867;BMP280;10593;48.398;10.698;2023-04-19T09:50:08;96371.19;;;16.83
20867;BMP280;10593;48.398;10.698;2023-04-19T09:52:35;96371.13;;;16.84
20867;BMP280;10593;48.398;10.698;2023-04-19T09:55:03;96373.59;;;16.87
20867;BMP280;10593;48.398;10.698;2023-04-19T09:57:31;96366.53;;;16.90
20867;BMP280;10593;48.398;10.698;2023-04-19T09:59:59;96367.28;;;16.94
20867;BMP280;10593;48.398;10.698;2023-04-19T10:02:30;96359.41;;;16.95
20867;BMP280;10593;48.398;10.698;2023-04-19T10:04:59;96363.63;;;16.98
20867;BMP280;10593;48.398;10.698;2023-04-19T10:07:26;96348.84;;;17.00
20867;BMP280;10593;48.398;10.698;2023-04-19T10:09:54;96343.50;;;17.03
20867;BMP280;10593;48.398;10.698;2023-04-19T10:12:24;96344.22;;;17.06
20867;BMP280;10593;48.398;10.698;2023-04-19T10:14:53;96347.56;;;17.10
20867;BMP280;10593;48.398;10.698;2023-04-19T10:17:21;96340.41;;;17.15
20867;BMP280;10593;48.398;10.698;2023-04-19T10:19:48;96337.75;;;17.16
20867;BMP280;10593;48.398;10.698;2023-04-19T10:22:16;96337.66;;;17.18
20867;BMP280;10593;48.398;10.698;2023-04-19T10:25:13;96335.84;;;17.20
20867;BMP280;10593;48.398;10.698;2023-04-19T10:27:41;96339.16;;;17.23
20867;BMP280;10593;48.398;10.698;2023-04-19T10:30:22;96339.94;;;17.25
20867;BMP280;10593;48.398;10.698;2023-04-19T10:32:57;96333.84;;;17.26
20867;BMP280;10593;48.398;10.698;2023-04-19T10:35:35;96336.38;;;17.28
20867;BMP280;10593;48.398;10.698;2023-04-19T10:38:06;96330.28;;;17.29
20867;BMP280;10593;48.398;10.698;2023-04-19T10:43:20;96331.91;;;17.31
20867;BMP280;10593;48.398;10.698;2023-04-19T10:45:46;96326.72;;;17.31
20867;BMP280;10593;48.398;10.698;2023-04-19T10:48:31;96323.22;;;17.32
20867;BMP280;10593;48.398;10.698;2023-04-19T10:51:17;96328.31;;;17.34
20867;BMP280;10593;48.398;10.698;2023-04-19T10:53:53;96318.00;;;17.32
20867;BMP280;10593;48.398;10.698;2023-04-19T11:03:59;96314.34;;;17.38
20867;BMP280;10593;48.398;10.698;2023-04-19T11:06:25;96303.94;;;17.38
20867;BMP280;10593;48.398;10.698;2023-04-19T11:08:53;96303.03;;;17.39
20867;BMP280;10593;48.398;10.698;2023-04-19T11:11:19;96300.31;;;17.42
20867;BMP280;10593;48.398;10.698;2023-04-19T11:13:50;96301.22;;;17.41
20867;BMP280;10593;48.398;10.698;2023-04-19T11:16:15;96301.97;;;17.43
20867;BMP280;10593;48.398;10.698;2023-04-19T11:18:43;96301.06;;;17.44
20867;BMP280;10593;48.398;10.698;2023-04-19T11:21:12;96307.13;;;17.44
20867;BMP280;10593;48.398;10.698;2023-04-19T11:23:39;96296.75;;;17.44
20867;BMP280;10593;48.398;10.698;2023-04-19T11:26:09;96292.38;;;17.45
20867;BMP280;10593;48.398;10.698;2023-04-19T11:28:37;96297.56;;;17.45
20867;BMP280;10593;48.398;10.698;2023-04-19T11:31:03;96299.25;;;17.46
20867;BMP280;10593;48.398;10.698;2023-04-19T11:33:33;96294.91;;;17.46
20867;BMP280;10593;48.398;10.698;2023-04-19T11:35:59;96294.06;;;17.46
20867;BMP280;10593;48.398;10.698;2023-04-19T11:38:29;96283.66;;;17.46
20867;BMP280;10593;48.398;10.698;2023-04-19T11:41:02;96287.13;;;17.46
20867;BMP280;10593;48.398;10.698;2023-04-19T11:43:35;96282.75;;;17.47
20867;BMP280;10593;48.398;10.698;2023-04-19T11:46:07;96281.06;;;17.46
20867;BMP280;10593;48.398;10.698;2023-04-19T11:48:33;96278.47;;;17.46
20867;BMP280;10593;48.398;10.698;2023-04-19T11:51:00;96274.91;;;17.48
20867;BMP280;10593;48.398;10.698;2023-04-19T11:53:27;96271.47;;;17.48
20867;BMP280;10593;48.398;10.698;2023-04-19T11:55:56;96264.50;;;17.48
20867;BMP280;10593;48.398;10.698;2023-04-19T11:58:30;96268.00;;;17.47
20867;BMP280;10593;48.398;10.698;2023-04-19T12:01:12;96257.56;;;17.49
20867;BMP280;10593;48.398;10.698;2023-04-19T12:03:49;96260.16;;;17.49
20867;BMP280;10593;48.398;10.698;2023-04-19T12:06:27;96257.56;;;17.49
20867;BMP280;10593;48.398;10.698;2023-04-19T12:08:55;96256.72;;;17.48
20867;BMP280;10593;48.398;10.698;2023-04-19T12:11:42;96250.69;;;17.48
20867;BMP280;10593;48.398;10.698;2023-04-19T12:14:17;96262.78;;;17.49
20867;BMP280;10593;48.398;10.698;2023-04-19T12:16:44;96262.78;;;17.49
20867;BMP280;10593;48.398;10.698;2023-04-19T12:19:15;96262.78;;;17.49
20867;BMP280;10593;48.398;10.698;2023-04-19T12:21:46;96265.38;;;17.49
20867;BMP280;10593;48.398;10.698;2023-04-19T12:24:15;96272.25;;;17.50
20867;BMP280;10593;48.398;10.698;2023-04-19T12:26:55;96259.25;;;17.50
20867;BMP280;10593;48.398;10.698;2023-04-19T12:29:25;96267.97;;;17.49
20867;BMP280;10593;48.398;10.698;2023-04-19T12:31:51;96261.91;;;17.48
20867;BMP280;10593;48.398;10.698;2023-04-19T12:34:17;96260.22;;;17.47
20867;BMP280;10593;48.398;10.698;2023-04-19T12:36:42;96263.72;;;17.46
20867;BMP280;10593;48.398;10.698;2023-04-19T12:39:08;96267.16;;;17.47
20867;BMP280;10593;48.398;10.698;2023-04-19T12:41:34;96257.69;;;17.46
20867;BMP280;10593;48.398;10.698;2023-04-19T12:43:59;96263.78;;;17.45
20867;BMP280;10593;48.398;10.698;2023-04-19T12:46:25;96261.19;;;17.45
20867;BMP280;10593;48.398;10.698;2023-04-19T12:48:51;96262.09;;;17.44
20867;BMP280;10593;48.398;10.698;2023-04-19T12:51:16;96258.69;;;17.43
20867;BMP280;10593;48.398;10.698;2023-04-19T12:53:48;96263.88;;;17.43
20867;BMP280;10593;48.398;10.698;2023-04-19T12:56:14;96264.78;;;17.42
20867;BMP280;10593;48.398;10.698;2023-04-19T12:58:40;96260.50;;;17.41
20867;BMP280;10593;48.398;10.698;2023-04-19T13:01:06;96261.38;;;17.40
20867;BMP280;10593;48.398;10.698;2023-04-19T13:03:32;96260.56;;;17.40
20867;BMP280;10593;48.398;10.698;2023-04-19T13:06:01;96269.28;;;17.39
20867;BMP280;10593;48.398;10.698;2023-04-19T13:08:27;96261.53;;;17.37
20867;BMP280;10593;48.398;10.698;2023-04-19T13:10:54;96257.19;;;17.38
20867;BMP280;10593;48.398;10.698;2023-04-19T13:13:21;96254.75;;;17.35
20867;BMP280;10593;48.398;10.698;2023-04-19T13:15:46;96253.88;;;17.34
20867;BMP280;10593;48.398;10.698;2023-04-19T13:18:12;96252.16;;;17.33
20867;BMP280;10593;48.398;10.698;2023-04-19T13:20:38;96245.34;;;17.31
20867;BMP280;10593;48.398;10.698;2023-04-19T13:23:03;96239.31;;;17.30
20867;BMP280;10593;48.398;10.698;2023-04-19T13:25:29;96250.63;;;17.29
20867;BMP280;10593;48.398;10.698;2023-04-19T13:27:55;96240.28;;;17.28
20867;BMP280;10593;48.398;10.698;2023-04-19T13:30:20;96239.50;;;17.26
20867;BMP280;10593;48.398;10.698;2023-04-19T13:32:46;96241.34;;;17.24
20867;BMP280;10593;48.398;10.698;2023-04-19T13:35:12;96244.91;;;17.21
20867;BMP280;10593;48.398;10.698;2023-04-19T13:37:37;96248.34;;;17.22
20867;BMP280;10593;48.398;10.698;2023-04-19T13:40:05;96241.47;;;17.21
20867;BMP280;10593;48.398;10.698;2023-04-19T13:42:31;96238.03;;;17.20
20867;BMP280;10593;48.398;10.698;2023-04-19T13:44:57;96238.94;;;17.19
20867;BMP280;10593;48.398;10.698;2023-04-19T13:47:22;96239.75;;;17.20
20867;BMP280;10593;48.398;10.698;2023-04-19T13:49:48;96239.75;;;17.20
20867;BMP280;10593;48.398;10.698;2023-04-19T13:52:17;96242.31;;;17.21
20867;BMP280;10593;48.398;10.698;2023-04-19T13:54:43;96233.75;;;17.19
20867;BMP280;10593;48.398;10.698;2023-04-19T13:57:09;96237.16;;;17.20
20867;BMP280;10593;48.398;10.698;2023-04-19T13:59:34;96249.31;;;17.19
20867;BMP280;10593;48.398;10.698;2023-04-19T14:02:03;96245.88;;;17.19
20867;BMP280;10593;48.398;10.698;2023-04-19T14:04:29;96236.41;;;17.18
20867;BMP280;10593;48.398;10.698;2023-04-19T14:06:55;96248.56;;;17.17